EST,Max TemperatureF,Mean TemperatureF,Min TemperatureF,Max Dew PointF,MeanDew PointF,Min DewpointF,Max Humidity, Mean Humidity, Min Humidity, Max Sea Level PressureIn, Mean Sea Level PressureIn, Min Sea Level PressureIn, Max VisibilityMiles, Mean VisibilityMiles, Min VisibilityMiles, Max Wind SpeedMPH, Mean Wind SpeedMPH, Max Gust SpeedMPH,PrecipitationIn, CloudCover, Events, WindDirDegrees
2012-12-1,53,40,26,37,32,23,92,73,52,30.34,30.25,30.14,10,9,6,20,6,32,0.00,6,,115
2012-12-2,53,50,48,52,48,37,100,87,55,30.13,30.02,29.94,10,4,0,23,16,33,0.38,7,Fog-Rain,218
2012-12-3,61,48,37,55,46,37,100,89,67,30.22,30.16,30.05,10,5,0,17,3,22,0.00,5,Fog,180
2012-12-4,64,55,45,54,50,39,100,84,63,30.05,29.98,29.91,10,7,2,20,13,30,0.44,6,Rain,231
2012-12-5,46,37,28,41,26,19,83,68,56,30.40,30.25,30.04,10,10,9,15,12,26,0.00,6,,305
2012-12-6,44,32,21,32,21,16,85,62,34,30.41,30.23,30.03,10,10,10,13,3,18,0.00,1,,103
2012-12-7,46,44,41,41,36,22,96,78,47,30.02,29.97,29.92,10,9,4,13,8,20,0.01,7,Rain,190
2012-12-8,48,42,37,47,42,30,100,94,76,30.17,29.87,29.77,10,4,1,15,3,21,0.22,8,Rain,284
2012-12-9,48,39,30,45,32,25,87,79,58,30.27,30.06,29.70,10,10,10,25,9,33,0.10,7,Rain,65
2012-12-10,53,44,36,50,40,30,100,85,73,29.79,29.63,29.53,10,9,2,22,15,41,0.18,8,Rain,256
2012-12-11,37,35,33,28,25,22,76,69,59,30.19,30.01,29.81,10,10,9,14,10,18,0.00,7,Snow,265
2012-12-12,39,34,28,26,23,20,78,65,53,30.44,30.35,30.21,10,10,10,14,11,23,0.00,3,,212
2012-12-13,45,36,28,23,20,17,75,54,33,30.46,30.37,30.22,10,10,10,14,7,20,0.00,0,,201
2012-12-14,43,35,27,35,29,18,96,74,45,30.27,30.24,30.20,10,9,4,15,10,20,0.00,4,,214
2012-12-15,48,36,25,33,27,23,96,71,46,30.25,30.13,29.90,10,8,4,16,3,26,0.00,3,Rain,114
2012-12-16,55,50,46,45,38,29,77,63,48,29.86,29.73,29.67,10,10,10,21,15,37,0.00,5,Rain,178
2012-12-17,48,45,42,45,41,38,97,86,76,29.76,29.67,29.55,10,8,2,15,8,22,0.22,8,Rain,221
2012-12-18,43,41,39,43,38,30,100,88,70,29.79,29.61,29.50,10,6,1,17,5,28,0.62,8,Rain,295
2012-12-19,41,37,33,36,33,30,96,85,70,30.18,29.96,29.77,10,8,5,8,5,,0.01,8,Rain,252
2012-12-20,45,39,33,37,32,27,93,77,53,30.17,29.82,29.31,10,9,6,29,8,54,0.01,5,Rain,134
2012-12-21,43,36,30,36,30,24,96,84,70,29.54,29.33,29.22,10,5,1,25,12,36,0.10,8,Rain-Snow,258
2012-12-22,33,32,30,25,22,20,75,66,60,30.00,29.84,29.55,10,9,5,25,20,41,0.00,8,Snow,283
2012-12-23,36,31,26,27,24,18,82,71,60,30.04,29.93,29.84,10,9,1,18,13,29,0.00,7,Snow,256
2012-12-24,34,32,30,29,23,19,93,74,59,30.04,29.93,29.83,10,8,2,10,6,18,0.00,6,Snow,43
2012-12-25,34,30,27,31,27,20,96,82,69,30.32,30.15,29.88,10,8,3,9,4,,0.02,8,Snow,42
2012-12-26,30,26,21,25,20,17,93,80,66,30.31,29.97,29.75,10,4,0,21,11,30,0.33,7,Fog-Snow,52
2012-12-27,30,27,24,25,23,21,93,85,72,30.10,29.85,29.70,10,6,1,17,12,24,0.02,8,Rain-Snow,353
2012-12-28,30,28,25,28,24,22,100,86,75,30.16,30.10,30.02,10,8,2,9,5,,0.00,8,Snow,245
2012-12-29,30,27,24,27,24,19,93,86,69,30.00,29.78,29.66,10,3,0,17,8,24,0.09,8,Fog-Snow,27
2012-12-30,30,28,25,24,21,17,82,72,61,30.28,30.14,29.93,10,8,2,18,14,25,0.02,8,Snow,291
2012-12-31,35,30,24,30,23,17,93,74,56,30.22,29.99,29.90,10,8,1,22,15,30,0.03,6,Snow,226